sensor_id;sensor_type;location;lat;lon;timestamp;P1;durP1;ratioP1;P2;durP2;ratioP2
801;SDS011;383;48.766;9.270;2022-12-20T00:01:21;48.75;;;20.83;;
801;SDS011;383;48.766;9.270;2022-12-20T00:03:49;52.17;;;22.90;;
801;SDS011;383;48.766;9.270;2022-12-20T00:06:17;43.60;;;20.13;;
801;SDS011;383;48.766;9.270;2022-12-20T00:08:44;44.42;;;20.88;;
801;SDS011;383;48.766;9.270;2022-12-20T00:11:12;42.33;;;20.40;;
801;SDS011;383;48.766;9.270;2022-12-20T00:13:38;46.45;;;22.15;;
801;SDS011;383;48.766;9.270;2022-12-20T00:16:08;41.17;;;19.35;;
801;SDS011;383;48.766;9.270;2022-12-20T00:18:36;35.67;;;17.25;;
801;SDS011;383;48.766;9.270;2022-12-20T00:21:04;34.65;;;18.48;;
801;SDS011;383;48.766;9.270;2022-12-20T00:23:32;36.38;;;16.83;;
801;SDS011;383;48.766;9.270;2022-12-20T00:25:59;39.38;;;17.52;;
801;SDS011;383;48.766;9.270;2022-12-20T00:28:27;34.72;;;17.55;;
801;SDS011;383;48.766;9.270;2022-12-20T00:30:54;43.90;;;21.17;;
801;SDS011;383;48.766;9.270;2022-12-20T00:33:22;40.08;;;19.58;;
801;SDS011;383;48.766;9.270;2022-12-20T00:35:48;49.67;;;21.65;;
801;SDS011;383;48.766;9.270;2022-12-20T00:38:15;44.00;;;25.42;;
801;SDS011;383;48.766;9.270;2022-12-20T00:40:42;42.92;;;20.70;;
801;SDS011;383;48.766;9.270;2022-12-20T00:43:08;43.17;;;21.40;;
801;SDS011;383;48.766;9.270;2022-12-20T00:45:35;48.50;;;22.27;;
801;SDS011;383;48.766;9.270;2022-12-20T00:48:02;42.20;;;22.75;;
801;SDS011;383;48.766;9.270;2022-12-20T00:50:31;45.08;;;19.83;;
801;SDS011;383;48.766;9.270;2022-12-20T00:52:57;52.83;;;20.25;;
801;SDS011;383;48.766;9.270;2022-12-20T00:55:24;41.45;;;19.55;;
801;SDS011;383;48.766;9.270;2022-12-20T00:57:54;45.05;;;19.00;;
801;SDS011;383;48.766;9.270;2022-12-20T01:00:20;29.48;;;16.38;;
801;SDS011;383;48.766;9.270;2022-12-20T01:02:47;36.70;;;19.02;;
801;SDS011;383;48.766;9.270;2022-12-20T01:05:14;38.92;;;17.08;;
801;SDS011;383;48.766;9.270;2022-12-20T01:07:42;39.90;;;19.67;;
801;SDS011;383;48.766;9.270;2022-12-20T01:10:09;36.42;;;18.60;;
801;SDS011;383;48.766;9.270;2022-12-20T01:12:36;34.10;;;17.55;;
801;SDS011;383;48.766;9.270;2022-12-20T01:15:03;38.67;;;18.70;;
801;SDS011;383;48.766;9.270;2022-12-20T01:17:31;42.25;;;19.52;;
801;SDS011;383;48.766;9.270;2022-12-20T01:19:58;48.78;;;19.70;;
801;SDS011;383;48.766;9.270;2022-12-20T01:22:24;48.38;;;19.63;;
801;SDS011;383;48.766;9.270;2022-12-20T01:24:52;37.03;;;18.98;;
801;SDS011;383;48.766;9.270;2022-12-20T01:27:19;38.55;;;18.48;;
801;SDS011;383;48.766;9.270;2022-12-20T01:29:46;40.35;;;18.38;;
801;SDS011;383;48.766;9.270;2022-12-20T01:32:13;38.92;;;18.88;;
801;SDS011;383;48.766;9.270;2022-12-20T01:34:39;41.17;;;18.38;;
801;SDS011;383;48.766;9.270;2022-12-20T01:37:06;41.78;;;19.90;;
801;SDS011;383;48.766;9.270;2022-12-20T01:39:34;40.67;;;18.33;;
801;SDS011;383;48.766;9.270;2022-12-20T01:42:02;40.80;;;17.52;;
801;SDS011;383;48.766;9.270;2022-12-20T01:47:32;38.28;;;18.38;;
801;SDS011;383;48.766;9.270;2022-12-20T01:50:01;43.25;;;18.88;;
801;SDS011;383;48.766;9.270;2022-12-20T01:52:32;48.05;;;19.65;;
801;SDS011;383;48.766;9.270;2022-12-20T01:55:03;48.25;;;21.17;;
801;SDS011;383;48.766;9.270;2022-12-20T01:57:35;49.05;;;20.30;;
801;SDS011;383;48.766;9.270;2022-12-20T02:00:07;49.22;;;19.90;;
801;SDS011;383;48.766;9.270;2022-12-20T02:02:35;39.13;;;19.05;;
801;SDS011;383;48.766;9.270;2022-12-20T02:05:02;46.13;;;20.00;;
801;SDS011;383;48.766;9.270;2022-12-20T02:07:30;46.50;;;21.67;;
801;SDS011;383;48.766;9.270;2022-12-20T02:09:59;42.35;;;19.50;;
801;SDS011;383;48.766;9.270;2022-12-20T02:12:28;46.95;;;20.52;;
801;SDS011;383;48.766;9.270;2022-12-20T02:15:04;55.60;;;22.83;;
801;SDS011;383;48.766;9.270;2022-12-20T02:17:43;47.05;;;20.23;;
801;SDS011;383;48.766;9.270;2022-12-20T02:20:24;56.00;;;21.52;;
801;SDS011;383;48.766;9.270;2022-12-20T02:23:15;50.20;;;21.10;;
801;SDS011;383;48.766;9.270;2022-12-20T02:26:24;38.03;;;18.90;;
801;SDS011;383;48.766;9.270;2022-12-20T02:29:06;43.33;;;20.17;;
801;SDS011;383;48.766;9.270;2022-12-20T02:31:48;45.30;;;20.60;;
801;SDS011;383;48.766;9.270;2022-12-20T02:34:20;49.88;;;19.88;;
801;SDS011;383;48.766;9.270;2022-12-20T02:36:50;40.65;;;19.65;;
801;SDS011;383;48.766;9.270;2022-12-20T02:39:16;43.42;;;19.05;;
801;SDS011;383;48.766;9.270;2022-12-20T02:41:44;41.00;;;18.90;;
801;SDS011;383;48.766;9.270;2022-12-20T02:44:16;47.67;;;21.90;;
801;SDS011;383;48.766;9.270;2022-12-20T02:47:05;44.50;;;21.02;;
801;SDS011;383;48.766;9.270;2022-12-20T02:49:36;43.03;;;18.90;;
801;SDS011;383;48.766;9.270;2022-12-20T02:52:06;44.80;;;19.50;;
801;SDS011;383;48.766;9.270;2022-12-20T02:54:34;39.35;;;17.48;;
801;SDS011;383;48.766;9.270;2022-12-20T02:57:03;50.85;;;20.40;;
801;SDS011;383;48.766;9.270;2022-12-20T02:59:36;47.20;;;20.83;;
801;SDS011;383;48.766;9.270;2022-12-20T03:02:08;43.63;;;18.05;;
801;SDS011;383;48.766;9.270;2022-12-20T03:04:36;42.63;;;19.35;;
801;SDS011;383;48.766;9.270;2022-12-20T03:07:05;36.13;;;17.10;;
801;SDS011;383;48.766;9.270;2022-12-20T03:09:34;42.08;;;19.13;;
801;SDS011;383;48.766;9.270;2022-12-20T03:12:03;49.35;;;20.35;;
801;SDS011;383;48.766;9.270;2022-12-20T03:14:30;51.00;;;20.50;;
801;SDS011;383;48.766;9.270;2022-12-20T03:16:57;47.60;;;19.35;;
801;SDS011;383;48.766;9.270;2022-12-20T03:19:25;42.08;;;19.90;;
801;SDS011;383;48.766;9.270;2022-12-20T03:21:52;42.13;;;17.90;;
801;SDS011;383;48.766;9.270;2022-12-20T03:24:19;41.85;;;19.35;;
801;SDS011;383;48.766;9.270;2022-12-20T03:26:45;42.92;;;19.17;;
801;SDS011;383;48.766;9.270;2022-12-20T03:29:12;41.58;;;17.75;;
801;SDS011;383;48.766;9.270;2022-12-20T03:31:39;40.03;;;17.73;;
801;SDS011;383;48.766;9.270;2022-12-20T03:34:06;36.40;;;17.80;;
801;SDS011;383;48.766;9.270;2022-12-20T03:36:34;39.45;;;19.23;;
801;SDS011;383;48.766;9.270;2022-12-20T03:39:01;40.58;;;18.30;;
801;SDS011;383;48.766;9.270;2022-12-20T03:41:28;37.08;;;17.08;;
801;SDS011;383;48.766;9.270;2022-12-20T03:43:55;49.25;;;18.00;;
801;SDS011;383;48.766;9.270;2022-12-20T03:46:22;48.65;;;20.90;;
801;SDS011;383;48.766;9.270;2022-12-20T03:48:48;41.55;;;18.67;;
801;SDS011;383;48.766;9.270;2022-12-20T03:51:15;33.53;;;17.52;;
801;SDS011;383;48.766;9.270;2022-12-20T03:53:43;45.40;;;18.38;;
801;SDS011;383;48.766;9.270;2022-12-20T03:56:10;36.53;;;17.67;;
801;SDS011;383;48.766;9.270;2022-12-20T03:58:36;42.85;;;17.50;;
801;SDS011;383;48.766;9.270;2022-12-20T04:01:14;47.00;;;18.08;;
801;SDS011;383;48.766;9.270;2022-12-20T04:03:42;48.97;;;17.30;;
801;SDS011;383;48.766;9.270;2022-12-20T04:06:09;37.13;;;17.25;;
801;SDS011;383;48.766;9.270;2022-12-20T04:08:36;42.65;;;19.13;;
801;SDS011;383;48.766;9.270;2022-12-20T04:11:04;41.17;;;17.92;;
801;SDS011;383;48.766;9.270;2022-12-20T04:13:43;33.80;;;16.70;;
801;SDS011;383;48.766;9.270;2022-12-20T04:16:11;33.47;;;18.17;;
801;SDS011;383;48.766;9.270;2022-12-20T04:18:38;39.55;;;18.30;;
801;SDS011;383;48.766;9.270;2022-12-20T04:21:05;35.60;;;16.92;;
801;SDS011;383;48.766;9.270;2022-12-20T04:23:32;40.55;;;18.58;;
801;SDS011;383;48.766;9.270;2022-12-20T04:26:00;41.25;;;18.08;;
801;SDS011;383;48.766;9.270;2022-12-20T04:28:28;38.03;;;16.77;;
801;SDS011;383;48.766;9.270;2022-12-20T04:30:55;43.30;;;19.48;;
801;SDS011;383;48.766;9.270;2022-12-20T04:33:22;45.22;;;17.90;;
801;SDS011;383;48.766;9.270;2022-12-20T04:35:52;50.15;;;19.80;;
801;SDS011;383;48.766;9.270;2022-12-20T04:38:19;40.83;;;18.38;;
801;SDS011;383;48.766;9.270;2022-12-20T04:40:47;31.23;;;17.30;;
801;SDS011;383;48.766;9.270;2022-12-20T04:43:14;39.45;;;17.98;;
801;SDS011;383;48.766;9.270;2022-12-20T04:45:43;39.03;;;17.60;;
801;SDS011;383;48.766;9.270;2022-12-20T04:48:10;41.40;;;16.65;;
801;SDS011;383;48.766;9.270;2022-12-20T04:50:37;36.08;;;18.25;;
801;SDS011;383;48.766;9.270;2022-12-20T04:53:04;42.58;;;18.60;;
801;SDS011;383;48.766;9.270;2022-12-20T04:55:48;35.25;;;16.90;;
801;SDS011;383;48.766;9.270;2022-12-20T04:58:16;43.28;;;17.33;;
801;SDS011;383;48.766;9.270;2022-12-20T05:00:44;36.97;;;16.08;;
801;SDS011;383;48.766;9.270;2022-12-20T05:03:10;45.80;;;17.77;;
801;SDS011;383;48.766;9.270;2022-12-20T05:05:37;33.88;;;16.92;;
801;SDS011;383;48.766;9.270;2022-12-20T05:08:04;35.08;;;16.15;;
801;SDS011;383;48.766;9.270;2022-12-20T05:10:31;42.60;;;17.58;;
801;SDS011;383;48.766;9.270;2022-12-20T05:12:57;39.75;;;18.33;;
801;SDS011;383;48.766;9.270;2022-12-20T05:15:24;34.05;;;16.35;;
801;SDS011;383;48.766;9.270;2022-12-20T05:17:52;37.55;;;15.05;;
801;SDS011;383;48.766;9.270;2022-12-20T05:20:23;37.35;;;17.20;;
801;SDS011;383;48.766;9.270;2022-12-20T05:22:50;29.45;;;15.25;;
801;SDS011;383;48.766;9.270;2022-12-20T05:25:34;33.35;;;15.50;;
801;SDS011;383;48.766;9.270;2022-12-20T05:28:28;37.03;;;15.55;;
801;SDS011;383;48.766;9.270;2022-12-20T05:30:55;38.65;;;17.77;;
801;SDS011;383;48.766;9.270;2022-12-20T05:33:24;39.38;;;17.70;;
801;SDS011;383;48.766;9.270;2022-12-20T05:35:51;36.10;;;16.35;;
801;SDS011;383;48.766;9.270;2022-12-20T05:38:17;30.63;;;15.52;;
801;SDS011;383;48.766;9.270;2022-12-20T05:40:45;28.33;;;14.75;;
801;SDS011;383;48.766;9.270;2022-12-20T05:43:13;36.53;;;16.25;;
801;SDS011;383;48.766;9.270;2022-12-20T05:45:43;32.17;;;16.38;;
801;SDS011;383;48.766;9.270;2022-12-20T05:48:10;37.35;;;15.23;;
801;SDS011;383;48.766;9.270;2022-12-20T05:50:39;34.88;;;15.73;;
801;SDS011;383;48.766;9.270;2022-12-20T05:53:08;27.30;;;14.25;;
801;SDS011;383;48.766;9.270;2022-12-20T05:55:35;42.88;;;18.15;;
801;SDS011;383;48.766;9.270;2022-12-20T05:58:04;35.85;;;18.65;;
801;SDS011;383;48.766;9.270;2022-12-20T06:00:31;41.72;;;16.65;;
801;SDS011;383;48.766;9.270;2022-12-20T06:02:58;31.80;;;15.55;;
801;SDS011;383;48.766;9.270;2022-12-20T06:05:25;40.78;;;16.27;;
801;SDS011;383;48.766;9.270;2022-12-20T06:07:53;31.85;;;16.05;;
801;SDS011;383;48.766;9.270;2022-12-20T06:10:20;33.17;;;16.55;;
801;SDS011;383;48.766;9.270;2022-12-20T06:12:46;43.70;;;20.17;;
801;SDS011;383;48.766;9.270;2022-12-20T06:15:14;39.53;;;16.92;;
801;SDS011;383;48.766;9.270;2022-12-20T06:17:40;33.65;;;16.70;;
801;SDS011;383;48.766;9.270;2022-12-20T06:20:07;29.05;;;15.95;;
801;SDS011;383;48.766;9.270;2022-12-20T06:22:36;33.25;;;15.88;;
801;SDS011;383;48.766;9.270;2022-12-20T06:25:04;35.38;;;16.38;;
801;SDS011;383;48.766;9.270;2022-12-20T06:27:33;31.83;;;16.67;;
801;SDS011;383;48.766;9.270;2022-12-20T06:30:00;34.97;;;15.32;;
801;SDS011;383;48.766;9.270;2022-12-20T06:32:27;31.73;;;15.35;;
801;SDS011;383;48.766;9.270;2022-12-20T06:34:53;33.95;;;15.13;;
801;SDS011;383;48.766;9.270;2022-12-20T06:37:20;37.95;;;16.60;;
801;SDS011;383;48.766;9.270;2022-12-20T06:39:47;28.50;;;16.10;;
801;SDS011;383;48.766;9.270;2022-12-20T06:42:15;36.42;;;15.70;;
801;SDS011;383;48.766;9.270;2022-12-20T06:44:41;27.55;;;15.10;;
801;SDS011;383;48.766;9.270;2022-12-20T06:47:08;30.60;;;14.18;;
801;SDS011;383;48.766;9.270;2022-12-20T06:49:35;32.17;;;13.93;;
801;SDS011;383;48.766;9.270;2022-12-20T06:52:02;31.10;;;14.70;;
801;SDS011;383;48.766;9.270;2022-12-20T06:54:29;32.95;;;15.65;;
801;SDS011;383;48.766;9.270;2022-12-20T06:56:56;31.85;;;14.93;;
801;SDS011;383;48.766;9.270;2022-12-20T06:59:24;40.13;;;15.73;;
801;SDS011;383;48.766;9.270;2022-12-20T07:01:50;24.65;;;12.95;;
801;SDS011;383;48.766;9.270;2022-12-20T07:04:17;39.30;;;15.75;;
801;SDS011;383;48.766;9.270;2022-12-20T07:06:45;39.67;;;16.70;;
801;SDS011;383;48.766;9.270;2022-12-20T07:09:12;36.67;;;15.95;;
801;SDS011;383;48.766;9.270;2022-12-20T07:11:38;40.88;;;18.30;;
801;SDS011;383;48.766;9.270;2022-12-20T07:14:07;42.15;;;18.25;;
801;SDS011;383;48.766;9.270;2022-12-20T07:16:35;43.97;;;19.85;;
801;SDS011;383;48.766;9.270;2022-12-20T07:19:02;49.42;;;19.20;;
801;SDS011;383;48.766;9.270;2022-12-20T07:21:29;39.55;;;19.40;;
801;SDS011;383;48.766;9.270;2022-12-20T07:23:56;39.97;;;19.17;;
801;SDS011;383;48.766;9.270;2022-12-20T07:26:23;43.90;;;19.40;;
801;SDS011;383;48.766;9.270;2022-12-20T07:28:49;40.20;;;18.58;;
801;SDS011;383;48.766;9.270;2022-12-20T07:31:16;37.25;;;17.33;;
801;SDS011;383;48.766;9.270;2022-12-20T07:33:44;37.22;;;16.92;;
801;SDS011;383;48.766;9.270;2022-12-20T07:36:11;36.20;;;17.55;;
801;SDS011;383;48.766;9.270;2022-12-20T07:38:39;37.97;;;17.02;;
801;SDS011;383;48.766;9.270;2022-12-20T07:41:07;36.80;;;17.83;;
801;SDS011;383;48.766;9.270;2022-12-20T07:43:34;42.65;;;17.52;;
801;SDS011;383;48.766;9.270;2022-12-20T07:46:01;40.30;;;17.95;;
801;SDS011;383;48.766;9.270;2022-12-20T07:48:28;35.00;;;17.25;;
801;SDS011;383;48.766;9.270;2022-12-20T07:50:58;43.88;;;18.80;;
801;SDS011;383;48.766;9.270;2022-12-20T07:53:27;40.83;;;17.55;;
801;SDS011;383;48.766;9.270;2022-12-20T07:55:59;36.95;;;18.38;;
801;SDS011;383;48.766;9.270;2022-12-20T07:58:28;53.97;;;17.83;;
801;SDS011;383;48.766;9.270;2022-12-20T08:00:57;34.80;;;15.85;;
801;SDS011;383;48.766;9.270;2022-12-20T08:03:25;37.58;;;17.30;;
801;SDS011;383;48.766;9.270;2022-12-20T08:05:59;34.25;;;16.63;;
801;SDS011;383;48.766;9.270;2022-12-20T08:08:30;41.40;;;19.25;;
801;SDS011;383;48.766;9.270;2022-12-20T08:10:58;34.13;;;17.20;;
801;SDS011;383;48.766;9.270;2022-12-20T08:13:26;43.75;;;19.83;;
801;SDS011;383;48.766;9.270;2022-12-20T08:15:53;37.10;;;19.92;;
801;SDS011;383;48.766;9.270;2022-12-20T08:18:20;39.78;;;17.52;;
801;SDS011;383;48.766;9.270;2022-12-20T08:20:47;44.15;;;18.42;;
801;SDS011;383;48.766;9.270;2022-12-20T08:23:15;33.33;;;16.48;;
801;SDS011;383;48.766;9.270;2022-12-20T08:25:43;33.67;;;18.85;;
801;SDS011;383;48.766;9.270;2022-12-20T08:28:10;52.30;;;25.27;;
801;SDS011;383;48.766;9.270;2022-12-20T08:30:37;45.10;;;21.00;;
801;SDS011;383;48.766;9.270;2022-12-20T08:33:05;35.67;;;16.95;;
801;SDS011;383;48.766;9.270;2022-12-20T08:35:34;31.77;;;15.45;;
801;SDS011;383;48.766;9.270;2022-12-20T08:38:01;27.55;;;14.10;;
801;SDS011;383;48.766;9.270;2022-12-20T08:40:29;32.90;;;15.63;;
801;SDS011;383;48.766;9.270;2022-12-20T08:42:57;28.60;;;13.48;;
801;SDS011;383;48.766;9.270;2022-12-20T08:45:23;30.33;;;15.98;;
801;SDS011;383;48.766;9.270;2022-12-20T08:47:50;25.30;;;12.45;;
801;SDS011;383;48.766;9.270;2022-12-20T08:50:18;24.00;;;10.95;;
801;SDS011;383;48.766;9.270;2022-12-20T08:52:45;16.98;;;9.25;;
801;SDS011;383;48.766;9.270;2022-12-20T08:55:11;19.45;;;11.02;;
801;SDS011;383;48.766;9.270;2022-12-20T08:57:39;24.33;;;10.23;;
801;SDS011;383;48.766;9.270;2022-12-20T09:00:07;25.83;;;12.43;;
801;SDS011;383;48.766;9.270;2022-12-20T09:02:35;22.17;;;11.43;;
801;SDS011;383;48.766;9.270;2022-12-20T09:05:02;26.38;;;12.75;;
801;SDS011;383;48.766;9.270;2022-12-20T09:07:30;31.40;;;14.85;;
801;SDS011;383;48.766;9.270;2022-12-20T09:09:56;28.77;;;14.88;;
801;SDS011;383;48.766;9.270;2022-12-20T09:12:23;35.22;;;15.68;;
801;SDS011;383;48.766;9.270;2022-12-20T09:14:51;28.33;;;13.48;;
801;SDS011;383;48.766;9.270;2022-12-20T09:17:18;31.63;;;12.45;;
801;SDS011;383;48.766;9.270;2022-12-20T09:19:45;29.10;;;13.30;;
801;SDS011;383;48.766;9.270;2022-12-20T09:22:11;24.42;;;12.38;;
801;SDS011;383;48.766;9.270;2022-12-20T09:24:38;31.88;;;12.63;;
801;SDS011;383;48.766;9.270;2022-12-20T09:27:05;25.60;;;13.00;;
801;SDS011;383;48.766;9.270;2022-12-20T09:29:31;22.10;;;11.18;;
801;SDS011;383;48.766;9.270;2022-12-20T09:31:59;24.63;;;11.40;;
801;SDS011;383;48.766;9.270;2022-12-20T09:34:26;21.48;;;12.23;;
801;SDS011;383;48.766;9.270;2022-12-20T09:36:53;32.28;;;13.18;;
801;SDS011;383;48.766;9.270;2022-12-20T09:39:20;30.00;;;12.63;;
801;SDS011;383;48.766;9.270;2022-12-20T09:41:46;37.42;;;16.38;;
801;SDS011;383;48.766;9.270;2022-12-20T09:44:15;26.20;;;12.75;;
801;SDS011;383;48.766;9.270;2022-12-20T09:46:44;25.17;;;12.30;;
801;SDS011;383;48.766;9.270;2022-12-20T09:49:16;29.23;;;14.75;;
801;SDS011;383;48.766;9.270;2022-12-20T09:51:48;25.17;;;14.07;;
801;SDS011;383;48.766;9.270;2022-12-20T09:54:30;27.52;;;14.05;;
801;SDS011;383;48.766;9.270;2022-12-20T09:57:05;54.65;;;24.73;;
801;SDS011;383;48.766;9.270;2022-12-20T09:59:39;49.83;;;25.70;;
801;SDS011;383;48.766;9.270;2022-12-20T10:02:08;31.55;;;17.35;;
801;SDS011;383;48.766;9.270;2022-12-20T10:04:39;32.13;;;17.13;;
801;SDS011;383;48.766;9.270;2022-12-20T10:07:11;38.42;;;22.15;;
801;SDS011;383;48.766;9.270;2022-12-20T10:09:54;36.22;;;17.30;;
801;SDS011;383;48.766;9.270;2022-12-20T10:12:30;40.17;;;19.35;;
801;SDS011;383;48.766;9.270;2022-12-20T10:15:16;37.97;;;16.45;;
801;SDS011;383;48.766;9.270;2022-12-20T10:17:57;33.28;;;18.65;;
801;SDS011;383;48.766;9.270;2022-12-20T10:20:43;39.63;;;13.65;;
801;SDS011;383;48.766;9.270;2022-12-20T10:23:16;20.98;;;11.52;;
801;SDS011;383;48.766;9.270;2022-12-20T10:25:50;25.50;;;13.73;;
801;SDS011;383;48.766;9.270;2022-12-20T10:28:19;26.40;;;13.05;;
801;SDS011;383;48.766;9.270;2022-12-20T10:30:51;32.42;;;13.75;;
801;SDS011;383;48.766;9.270;2022-12-20T10:33:19;28.15;;;14.32;;
801;SDS011;383;48.766;9.270;2022-12-20T10:35:48;22.20;;;11.18;;
801;SDS011;383;48.766;9.270;2022-12-20T10:38:16;16.17;;;10.32;;
801;SDS011;383;48.766;9.270;2022-12-20T10:40:45;19.95;;;8.43;;
801;SDS011;383;48.766;9.270;2022-12-20T10:43:14;25.45;;;12.27;;
801;SDS011;383;48.766;9.270;2022-12-20T10:45:43;27.10;;;13.50;;
801;SDS011;383;48.766;9.270;2022-12-20T10:48:30;30.67;;;15.05;;
801;SDS011;383;48.766;9.270;2022-12-20T10:51:01;28.13;;;14.98;;
801;SDS011;383;48.766;9.270;2022-12-20T10:53:30;31.33;;;14.43;;
801;SDS011;383;48.766;9.270;2022-12-20T10:58:49;32.55;;;16.83;;
801;SDS011;383;48.766;9.270;2022-12-20T11:01:18;28.75;;;15.98;;
801;SDS011;383;48.766;9.270;2022-12-20T11:03:51;28.33;;;14.85;;
801;SDS011;383;48.766;9.270;2022-12-20T11:06:22;33.58;;;17.33;;
801;SDS011;383;48.766;9.270;2022-12-20T11:08:51;35.00;;;16.13;;
801;SDS011;383;48.766;9.270;2022-12-20T11:11:19;28.25;;;15.52;;
801;SDS011;383;48.766;9.270;2022-12-20T11:13:47;28.95;;;16.50;;
801;SDS011;383;48.766;9.270;2022-12-20T11:16:22;31.10;;;13.57;;
801;SDS011;383;48.766;9.270;2022-12-20T11:18:57;33.03;;;15.65;;
801;SDS011;383;48.766;9.270;2022-12-20T11:21:34;27.38;;;14.15;;
801;SDS011;383;48.766;9.270;2022-12-20T11:24:09;35.35;;;18.05;;
801;SDS011;383;48.766;9.270;2022-12-20T11:26:41;30.95;;;15.88;;
801;SDS011;383;48.766;9.270;2022-12-20T11:29:30;25.35;;;14.65;;
801;SDS011;383;48.766;9.270;2022-12-20T11:32:19;35.05;;;14.45;;
801;SDS011;383;48.766;9.270;2022-12-20T11:34:57;32.45;;;15.90;;
801;SDS011;383;48.766;9.270;2022-12-20T11:37:36;26.23;;;14.63;;
801;SDS011;383;48.766;9.270;2022-12-20T11:40:14;34.00;;;17.70;;
801;SDS011;383;48.766;9.270;2022-12-20T11:42:51;27.65;;;13.30;;
801;SDS011;383;48.766;9.270;2022-12-20T11:45:29;25.92;;;14.32;;
801;SDS011;383;48.766;9.270;2022-12-20T11:51:00;25.00;;;15.60;;
801;SDS011;383;48.766;9.270;2022-12-20T11:53:37;31.60;;;16.50;;
801;SDS011;383;48.766;9.270;2022-12-20T11:56:09;36.17;;;17.17;;
801;SDS011;383;48.766;9.270;2022-12-20T11:58:46;29.60;;;15.63;;
801;SDS011;383;48.766;9.270;2022-12-20T12:01:17;31.58;;;15.80;;
801;SDS011;383;48.766;9.270;2022-12-20T12:03:49;37.65;;;17.75;;
801;SDS011;383;48.766;9.270;2022-12-20T12:06:26;32.85;;;15.55;;
801;SDS011;383;48.766;9.270;2022-12-20T12:09:00;37.65;;;17.48;;
801;SDS011;383;48.766;9.270;2022-12-20T12:11:35;29.10;;;16.52;;
801;SDS011;383;48.766;9.270;2022-12-20T12:14:05;32.55;;;15.65;;
801;SDS011;383;48.766;9.270;2022-12-20T12:16:36;30.50;;;16.75;;
801;SDS011;383;48.766;9.270;2022-12-20T12:19:08;34.42;;;16.00;;
801;SDS011;383;48.766;9.270;2022-12-20T12:21:38;27.90;;;17.63;;
801;SDS011;383;48.766;9.270;2022-12-20T12:24:15;36.45;;;18.73;;
801;SDS011;383;48.766;9.270;2022-12-20T12:26:46;30.52;;;15.93;;
801;SDS011;383;48.766;9.270;2022-12-20T12:29:14;24.10;;;14.25;;
801;SDS011;383;48.766;9.270;2022-12-20T12:31:43;29.67;;;14.95;;
801;SDS011;383;48.766;9.270;2022-12-20T12:34:14;27.17;;;14.60;;
801;SDS011;383;48.766;9.270;2022-12-20T12:37:15;32.30;;;14.02;;
801;SDS011;383;48.766;9.270;2022-12-20T12:40:11;28.35;;;15.15;;
801;SDS011;383;48.766;9.270;2022-12-20T12:43:00;34.38;;;16.10;;
801;SDS011;383;48.766;9.270;2022-12-20T12:45:45;35.00;;;15.23;;
801;SDS011;383;48.766;9.270;2022-12-20T12:48:14;31.58;;;18.05;;
801;SDS011;383;48.766;9.270;2022-12-20T12:50:48;33.20;;;16.55;;
801;SDS011;383;48.766;9.270;2022-12-20T12:53:19;27.33;;;15.93;;
801;SDS011;383;48.766;9.270;2022-12-20T12:55:50;34.75;;;17.70;;
801;SDS011;383;48.766;9.270;2022-12-20T12:58:30;29.75;;;16.52;;
801;SDS011;383;48.766;9.270;2022-12-20T13:00:58;32.35;;;18.08;;
801;SDS011;383;48.766;9.270;2022-12-20T13:03:47;31.38;;;18.50;;
801;SDS011;383;48.766;9.270;2022-12-20T13:06:42;37.60;;;18.27;;
801;SDS011;383;48.766;9.270;2022-12-20T13:09:21;29.63;;;16.88;;
801;SDS011;383;48.766;9.270;2022-12-20T13:18:30;27.52;;;15.40;;
801;SDS011;383;48.766;9.270;2022-12-20T13:21:16;33.72;;;16.55;;
801;SDS011;383;48.766;9.270;2022-12-20T13:27:03;33.00;;;16.92;;
801;SDS011;383;48.766;9.270;2022-12-20T13:29:59;32.15;;;17.48;;
801;SDS011;383;48.766;9.270;2022-12-20T13:32:55;28.92;;;15.65;;
801;SDS011;383;48.766;9.270;2022-12-20T13:35:43;41.55;;;18.20;;
801;SDS011;383;48.766;9.270;2022-12-20T13:41:08;18.75;;;9.70;;
801;SDS011;383;48.766;9.270;2022-12-20T13:43:43;20.95;;;11.18;;
801;SDS011;383;48.766;9.270;2022-12-20T13:46:12;18.95;;;10.07;;
801;SDS011;383;48.766;9.270;2022-12-20T13:48:48;16.05;;;8.35;;
801;SDS011;383;48.766;9.270;2022-12-20T13:51:18;12.77;;;7.85;;
801;SDS011;383;48.766;9.270;2022-12-20T13:53:50;13.85;;;8.02;;
801;SDS011;383;48.766;9.270;2022-12-20T13:56:30;17.83;;;8.52;;
801;SDS011;383;48.766;9.270;2022-12-20T13:59:06;14.73;;;7.72;;
801;SDS011;383;48.766;9.270;2022-12-20T14:01:45;10.98;;;6.30;;
801;SDS011;383;48.766;9.270;2022-12-20T14:04:14;20.42;;;8.43;;
801;SDS011;383;48.766;9.270;2022-12-20T14:06:42;11.45;;;7.88;;
801;SDS011;383;48.766;9.270;2022-12-20T14:11:52;22.95;;;12.30;;
801;SDS011;383;48.766;9.270;2022-12-20T14:14:19;29.38;;;15.60;;
801;SDS011;383;48.766;9.270;2022-12-20T14:16:45;36.20;;;16.52;;
801;SDS011;383;48.766;9.270;2022-12-20T14:19:13;34.33;;;17.10;;
801;SDS011;383;48.766;9.270;2022-12-20T14:21:41;41.38;;;18.65;;
801;SDS011;383;48.766;9.270;2022-12-20T14:24:11;32.00;;;17.33;;
801;SDS011;383;48.766;9.270;2022-12-20T14:26:42;40.20;;;18.35;;
801;SDS011;383;48.766;9.270;2022-12-20T14:29:15;29.58;;;15.20;;
801;SDS011;383;48.766;9.270;2022-12-20T14:31:44;32.60;;;16.05;;
801;SDS011;383;48.766;9.270;2022-12-20T14:34:15;28.90;;;16.95;;
801;SDS011;383;48.766;9.270;2022-12-20T14:36:45;35.42;;;18.30;;
801;SDS011;383;48.766;9.270;2022-12-20T14:39:22;36.00;;;19.90;;
801;SDS011;383;48.766;9.270;2022-12-20T14:41:54;31.38;;;17.80;;
801;SDS011;383;48.766;9.270;2022-12-20T14:44:22;36.63;;;16.70;;
801;SDS011;383;48.766;9.270;2022-12-20T14:46:51;29.42;;;16.02;;
801;SDS011;383;48.766;9.270;2022-12-20T14:49:22;35.45;;;16.73;;
801;SDS011;383;48.766;9.270;2022-12-20T14:52:03;34.58;;;16.50;;
801;SDS011;383;48.766;9.270;2022-12-20T14:54:41;31.38;;;14.63;;
801;SDS011;383;48.766;9.270;2022-12-20T14:57:21;32.83;;;15.90;;
801;SDS011;383;48.766;9.270;2022-12-20T15:00:04;33.60;;;19.05;;
801;SDS011;383;48.766;9.270;2022-12-20T15:02:45;46.22;;;21.42;;
801;SDS011;383;48.766;9.270;2022-12-20T15:08:09;35.58;;;17.25;;
801;SDS011;383;48.766;9.270;2022-12-20T15:10:41;32.60;;;17.17;;
801;SDS011;383;48.766;9.270;2022-12-20T15:13:12;37.10;;;16.77;;
801;SDS011;383;48.766;9.270;2022-12-20T15:15:41;24.50;;;14.52;;
801;SDS011;383;48.766;9.270;2022-12-20T15:18:09;24.58;;;11.77;;
801;SDS011;383;48.766;9.270;2022-12-20T15:20:39;28.17;;;13.45;;
801;SDS011;383;48.766;9.270;2022-12-20T15:23:09;23.42;;;11.95;;
801;SDS011;383;48.766;9.270;2022-12-20T15:25:40;32.85;;;13.50;;
801;SDS011;383;48.766;9.270;2022-12-20T15:28:16;25.65;;;14.23;;
801;SDS011;383;48.766;9.270;2022-12-20T15:30:45;34.72;;;15.55;;
801;SDS011;383;48.766;9.270;2022-12-20T15:33:14;27.02;;;14.50;;
801;SDS011;383;48.766;9.270;2022-12-20T15:35:44;38.10;;;15.55;;
801;SDS011;383;48.766;9.270;2022-12-20T15:38:15;34.50;;;16.52;;
801;SDS011;383;48.766;9.270;2022-12-20T15:40:43;35.22;;;16.25;;
801;SDS011;383;48.766;9.270;2022-12-20T15:43:11;30.23;;;15.35;;
801;SDS011;383;48.766;9.270;2022-12-20T15:45:40;34.55;;;16.17;;
801;SDS011;383;48.766;9.270;2022-12-20T15:48:11;33.13;;;15.43;;
801;SDS011;383;48.766;9.270;2022-12-20T15:50:40;24.90;;;14.15;;
801;SDS011;383;48.766;9.270;2022-12-20T15:53:13;31.02;;;13.85;;
801;SDS011;383;48.766;9.270;2022-12-20T15:55:41;23.77;;;11.88;;
801;SDS011;383;48.766;9.270;2022-12-20T15:58:08;22.38;;;13.18;;
801;SDS011;383;48.766;9.270;2022-12-20T16:00:36;21.10;;;11.75;;
801;SDS011;383;48.766;9.270;2022-12-20T16:03:07;25.20;;;12.05;;